createdAt,value
2019-01-17T00:04:53.683Z,6.57
2019-01-17T00:10:29.892Z,6.56
2019-01-17T00:23:55.889Z,6.56
2019-01-17T00:26:43.194Z,6.56
2019-01-17T00:32:05.779Z,6.55
2019-01-17T00:34:53.092Z,6.54
2019-01-17T00:40:50.266Z,6.59
2019-01-17T00:49:01.637Z,6.59
2019-01-17T00:51:48.957Z,6.59
2019-01-17T00:54:36.296Z,6.60
2019-01-17T00:57:23.620Z,6.61
2019-01-17T01:00:10.957Z,6.59
2019-01-17T01:02:58.256Z,6.60
2019-01-17T01:05:45.577Z,6.59
2019-01-17T01:11:21.760Z,6.63
2019-01-17T01:19:58.575Z,6.63
2019-01-17T01:28:00.573Z,6.67
2019-01-17T01:30:47.907Z,6.67
2019-01-17T01:36:10.435Z,6.69
2019-01-17T01:38:57.776Z,6.70
2019-01-17T01:41:45.108Z,6.70
2019-01-17T01:44:32.429Z,6.69
2019-01-17T01:54:54.405Z,6.69
2019-01-17T01:57:22.610Z,6.72
2019-01-17T01:59:50.815Z,6.76
2019-01-17T02:02:19.005Z,6.77
2019-01-17T02:04:47.206Z,6.77
2019-01-17T02:07:15.397Z,6.81
2019-01-17T02:09:43.600Z,6.84
2019-01-17T02:12:11.795Z,6.87
2019-01-17T02:20:48.112Z,6.89
2019-01-17T02:23:35.420Z,6.84
2019-01-17T02:26:03.601Z,6.82
2019-01-17T02:28:31.803Z,6.79
2019-01-17T02:33:47.221Z,6.81
2019-01-17T02:36:15.408Z,6.80
2019-01-17T02:41:16.990Z,6.84
2019-01-17T02:43:45.176Z,6.82
2019-01-17T02:46:32.720Z,6.83
2019-01-17T02:49:00.911Z,6.82
2019-01-17T02:51:29.094Z,6.79
2019-01-17T02:53:57.293Z,6.77
2019-01-17T02:56:25.467Z,6.76
2019-01-17T02:58:53.658Z,6.77
2019-01-17T03:01:21.836Z,6.78
2019-01-17T03:03:50.027Z,6.78
2019-01-17T03:06:18.210Z,6.77
2019-01-17T03:08:46.414Z,6.75
2019-01-17T03:11:14.577Z,6.69
2019-01-17T03:13:42.791Z,6.67
2019-01-17T03:16:10.975Z,6.70
2019-01-17T03:18:39.150Z,6.72
2019-01-17T03:21:07.343Z,6.69
2019-01-17T03:23:35.530Z,6.69
2019-01-17T03:26:03.721Z,6.67
2019-01-17T03:28:31.900Z,6.66
2019-01-17T03:31:00.092Z,6.65
2019-01-17T03:33:28.271Z,6.66
2019-01-17T03:35:56.466Z,6.64
2019-01-17T03:38:24.649Z,6.60
2019-01-17T03:40:52.838Z,6.58
2019-01-17T03:43:21.015Z,6.60
2019-01-17T03:45:49.211Z,6.57
2019-01-17T03:48:17.383Z,6.55
2019-01-17T03:51:04.937Z,6.54
2019-01-17T03:53:33.125Z,6.52
2019-01-17T03:56:01.323Z,6.53
2019-01-17T03:58:48.879Z,6.52
2019-01-17T04:01:17.089Z,6.51
2019-01-17T04:03:45.251Z,6.51
2019-01-17T04:08:47.301Z,6.52
2019-01-17T04:11:15.492Z,6.53
2019-01-17T04:13:43.678Z,6.56
2019-01-17T04:16:11.869Z,6.58
2019-01-17T04:18:59.169Z,6.58
2019-01-17T04:21:27.356Z,6.62
2019-01-17T04:24:14.653Z,6.62
2019-01-17T04:26:42.840Z,6.60
2019-01-17T04:29:11.020Z,6.58
2019-01-17T04:31:39.211Z,6.57
2019-01-17T04:34:07.394Z,6.57
2019-01-17T04:36:54.950Z,6.57
2019-01-17T04:39:23.130Z,6.56
2019-01-17T04:41:51.326Z,6.55
2019-01-17T04:47:13.205Z,6.53
2019-01-17T04:49:41.389Z,6.55
2019-01-17T04:52:09.583Z,6.54
2019-01-17T04:54:38.553Z,6.53
2019-01-17T04:57:07.676Z,6.53
2019-01-17T04:59:35.858Z,6.54
2019-01-17T05:02:04.053Z,6.54
2019-01-17T05:04:32.244Z,6.59
2019-01-17T05:07:00.425Z,6.62
2019-01-17T05:09:28.604Z,6.66
2019-01-17T05:11:56.794Z,6.71
2019-01-17T05:14:24.985Z,6.71
2019-01-17T05:16:54.373Z,6.69
2019-01-17T05:19:23.073Z,6.66
2019-01-17T05:22:10.696Z,6.62
2019-01-17T05:24:38.881Z,6.59
2019-01-17T05:27:07.074Z,6.58
2019-01-17T05:29:35.257Z,6.56
2019-01-17T05:32:03.436Z,6.58
2019-01-17T05:34:38.975Z,6.58
2019-01-17T05:37:01.531Z,6.59
2019-01-17T05:39:29.720Z,6.60
2019-01-17T05:41:57.903Z,6.59
2019-01-17T05:44:26.103Z,6.61
2019-01-17T05:46:54.289Z,6.60
2019-01-17T05:49:22.476Z,6.61
2019-01-17T05:51:50.656Z,6.63
2019-01-17T05:54:18.849Z,6.63
2019-01-17T05:56:47.032Z,6.66
2019-01-17T05:59:15.226Z,6.66
2019-01-17T06:01:43.414Z,6.68
2019-01-17T06:04:11.604Z,6.65
2019-01-17T06:06:39.787Z,6.62
2019-01-17T06:09:48.089Z,6.62
2019-01-17T06:12:16.270Z,6.61
2019-01-17T06:14:44.459Z,6.58
2019-01-17T06:17:12.637Z,6.56
2019-01-17T06:19:40.835Z,6.55
2019-01-17T06:22:09.020Z,6.56
2019-01-17T06:24:37.210Z,6.58
2019-01-17T06:27:05.401Z,6.56
2019-01-17T06:29:33.598Z,6.57
2019-01-17T06:32:01.783Z,6.56
2019-01-17T06:34:29.977Z,6.57
2019-01-17T06:36:58.157Z,6.59
2019-01-17T06:39:26.348Z,6.57
2019-01-17T06:42:13.959Z,6.52
2019-01-17T06:44:42.149Z,6.48
2019-01-17T06:47:10.329Z,6.47
2019-01-17T06:49:38.517Z,6.44
2019-01-17T06:52:06.695Z,6.44
2019-01-17T06:54:34.908Z,6.47
2019-01-17T06:57:03.087Z,6.49
2019-01-17T06:59:31.266Z,6.48
2019-01-17T07:01:59.459Z,6.47
2019-01-17T07:04:27.642Z,6.48
2019-01-17T07:06:55.836Z,6.46
2019-01-17T07:09:24.020Z,6.49
2019-01-17T07:11:52.217Z,6.52
2019-01-17T07:14:20.403Z,6.55
2019-01-17T07:16:48.596Z,6.54
2019-01-17T07:19:16.774Z,6.55
2019-01-17T07:21:44.971Z,6.55
2019-01-17T07:24:13.150Z,6.58
2019-01-17T07:27:00.462Z,6.61
2019-01-17T07:29:28.641Z,6.59
2019-01-17T07:31:56.832Z,6.59
2019-01-17T07:34:25.013Z,6.61
2019-01-17T07:36:53.208Z,6.62
2019-01-17T07:39:21.392Z,6.63
2019-01-17T07:42:08.719Z,6.62
2019-01-17T07:44:55.989Z,6.62
2019-01-17T07:47:24.179Z,6.62
2019-01-17T07:52:39.610Z,6.67
2019-01-17T07:58:21.987Z,6.67
2019-01-17T08:00:50.163Z,6.65
2019-01-17T08:03:18.357Z,6.66
2019-01-17T08:05:46.542Z,6.67
2019-01-17T08:08:14.736Z,6.66
2019-01-17T08:10:42.913Z,6.69
2019-01-17T08:13:11.106Z,6.75
2019-01-17T08:15:39.283Z,6.78
2019-01-17T08:18:07.491Z,6.81
2019-01-17T08:20:55.037Z,6.83
2019-01-17T08:23:23.612Z,6.82
2019-01-17T08:25:54.277Z,6.82
2019-01-17T08:28:21.706Z,6.82
2019-01-17T08:31:09.254Z,6.84
2019-01-17T08:33:56.568Z,6.84
2019-01-17T08:39:17.486Z,6.84
2019-01-17T08:41:45.664Z,6.84
2019-01-17T08:44:13.854Z,6.88
2019-01-17T08:46:42.028Z,6.88
2019-01-17T08:49:10.278Z,6.91
2019-01-17T08:51:38.462Z,6.92
2019-01-17T08:54:06.649Z,6.91
2019-01-17T08:56:34.824Z,6.93
2019-01-17T08:59:03.020Z,7.00
2019-01-17T09:01:31.201Z,7.06
2019-01-17T09:03:59.395Z,7.07
2019-01-17T09:06:27.573Z,7.08
2019-01-17T09:08:55.771Z,7.09
2019-01-17T09:11:23.951Z,7.09
2019-01-17T09:13:52.150Z,7.11
2019-01-17T09:16:20.328Z,7.11
2019-01-17T09:19:07.944Z,7.10
2019-01-17T09:21:36.125Z,7.13
2019-01-17T09:24:04.316Z,7.21
2019-01-17T09:26:32.507Z,7.28
2019-01-17T09:29:00.703Z,7.34
2019-01-17T09:31:28.876Z,7.36
2019-01-17T09:33:57.069Z,7.39
2019-01-17T09:36:25.265Z,7.41
2019-01-17T09:38:53.427Z,7.43
2019-01-17T09:41:21.617Z,7.48
2019-01-17T09:43:49.799Z,7.49
2019-01-17T09:46:17.987Z,7.54
2019-01-17T09:48:46.164Z,7.65
2019-01-17T09:51:54.473Z,7.72
2019-01-17T09:54:22.684Z,7.71
2019-01-17T09:56:50.873Z,7.70
2019-01-17T09:59:19.053Z,7.68
2019-01-17T10:01:47.237Z,7.62
2019-01-17T10:04:15.421Z,7.59
2019-01-17T10:06:43.625Z,7.57
2019-01-17T10:09:51.927Z,7.57
2019-01-17T10:12:20.112Z,7.54
2019-01-17T10:14:48.292Z,7.49
2019-01-17T10:17:56.603Z,7.44
2019-01-17T10:27:04.964Z,7.39
2019-01-17T10:30:11.945Z,7.38
2019-01-17T10:33:20.259Z,7.38
2019-01-17T10:39:28.575Z,7.38
2019-01-17T10:42:36.953Z,7.38
2019-01-17T10:45:43.937Z,7.41
2019-01-17T10:48:52.295Z,7.45
2019-01-17T10:55:00.534Z,7.56
2019-01-17T10:58:07.525Z,7.63
2019-01-17T11:01:14.501Z,7.70
2019-01-17T11:04:21.494Z,7.76
2019-01-17T11:10:29.693Z,7.90
2019-01-17T11:13:37.968Z,7.90
2019-01-17T11:16:45.039Z,7.94
2019-01-17T11:19:53.349Z,8.00
2019-01-17T11:23:00.342Z,8.01
2019-01-17T11:26:07.326Z,8.00
2019-01-17T11:29:15.645Z,7.99
2019-01-17T11:32:22.610Z,8.02
2019-01-17T11:35:29.615Z,8.00
2019-01-17T11:44:39.142Z,7.99
2019-01-17T11:50:46.783Z,8.03
2019-01-17T11:53:53.785Z,8.07
2019-01-17T12:03:02.255Z,9.57
2019-01-17T12:05:31.261Z,10.00
2019-01-17T12:07:59.437Z,9.88
2019-01-17T12:10:27.629Z,9.53
2019-01-17T12:15:44.690Z,9.14
2019-01-17T12:18:12.865Z,8.94
2019-01-17T12:20:41.065Z,8.83
2019-01-17T12:23:09.244Z,8.75
2019-01-17T12:25:37.450Z,8.69
2019-01-17T12:28:05.630Z,8.65
2019-01-17T12:30:33.829Z,8.52
2019-01-17T12:33:02.011Z,8.47
2019-01-17T12:35:30.206Z,8.43
2019-01-17T12:37:58.386Z,8.42
2019-01-17T12:40:26.575Z,8.43
2019-01-17T12:42:54.751Z,8.43
2019-01-17T12:45:22.941Z,8.36
2019-01-17T12:47:51.131Z,8.26
2019-01-17T12:50:19.304Z,8.16
2019-01-17T12:52:47.507Z,8.08
2019-01-17T12:55:15.690Z,8.02
2019-01-17T12:57:43.891Z,7.95
2019-01-17T13:03:13.516Z,7.82
2019-01-17T13:05:41.692Z,7.73
2019-01-17T13:08:09.885Z,7.68
2019-01-17T13:10:38.068Z,7.68
2019-01-17T13:13:06.262Z,7.65
2019-01-17T13:15:34.449Z,7.65
2019-01-17T13:18:02.644Z,7.68
2019-01-17T13:20:30.825Z,7.64
2019-01-17T13:23:18.392Z,7.59
2019-01-17T13:25:46.566Z,7.56
2019-01-17T13:28:14.760Z,7.49
2019-01-17T13:30:42.938Z,7.46
2019-01-17T13:33:11.132Z,7.44
2019-01-17T13:35:39.316Z,7.43
2019-01-17T13:38:07.504Z,7.36
2019-01-17T13:40:35.686Z,7.29
2019-01-17T13:43:03.888Z,7.29
2019-01-17T13:45:32.061Z,7.31
2019-01-17T13:48:00.261Z,7.32
2019-01-17T13:50:28.439Z,7.32
2019-01-17T13:52:56.629Z,7.32
2019-01-17T13:55:24.811Z,7.30
2019-01-17T13:57:53.010Z,7.28
2019-01-17T14:03:35.584Z,7.21
2019-01-17T14:06:03.764Z,7.19
2019-01-17T14:08:31.954Z,7.18
2019-01-17T14:11:00.143Z,7.20
2019-01-17T14:13:28.340Z,7.19
2019-01-17T14:15:56.514Z,7.14
2019-01-17T14:18:27.977Z,7.12
2019-01-17T14:20:54.601Z,7.08
2019-01-17T14:23:22.792Z,7.06
2019-01-17T14:25:50.968Z,7.08
2019-01-17T14:28:19.164Z,7.08
2019-01-17T14:30:47.342Z,7.07
2019-01-17T14:33:15.586Z,7.02
2019-01-17T14:35:43.758Z,6.99
2019-01-17T14:38:11.933Z,7.02
2019-01-17T14:40:40.125Z,6.99
2019-01-17T14:43:08.302Z,6.89
2019-01-17T14:45:36.488Z,6.82
2019-01-17T14:51:05.998Z,6.73
2019-01-17T14:53:34.223Z,6.66
2019-01-17T14:56:02.408Z,6.62
2019-01-17T14:58:30.590Z,6.61
2019-01-17T15:00:58.860Z,6.57
2019-01-17T15:03:27.036Z,6.59
2019-01-17T15:05:55.232Z,6.55
2019-01-17T15:08:23.414Z,6.58
2019-01-17T15:10:51.606Z,6.56
2019-01-17T15:13:19.789Z,6.59
2019-01-17T15:15:47.980Z,6.58
2019-01-17T15:18:16.163Z,6.62
2019-01-17T15:20:44.353Z,6.65
2019-01-17T15:23:12.532Z,6.70
2019-01-17T15:25:40.725Z,6.76
2019-01-17T15:28:08.907Z,6.81
2019-01-17T15:30:37.100Z,6.84
2019-01-17T15:33:05.289Z,6.81
2019-01-17T15:35:33.479Z,6.73
2019-01-17T15:38:01.661Z,6.71
2019-01-17T15:41:09.966Z,6.66
2019-01-17T15:43:38.144Z,6.65
2019-01-17T15:48:45.624Z,6.64
2019-01-17T15:51:26.659Z,6.65
2019-01-17T15:53:54.840Z,6.64
2019-01-17T15:56:23.041Z,6.63
2019-01-17T15:58:51.212Z,6.60
2019-01-17T16:01:19.408Z,6.56
2019-01-17T16:03:47.610Z,6.53
2019-01-17T16:06:15.796Z,6.47
2019-01-17T16:08:43.982Z,6.42
2019-01-17T16:11:12.177Z,6.39
2019-01-17T16:13:40.416Z,6.36
2019-01-17T16:16:08.664Z,6.38
2019-01-17T16:18:36.834Z,6.37
2019-01-17T16:21:05.008Z,6.32
2019-01-17T16:23:33.210Z,6.32
2019-01-17T16:26:01.376Z,6.30
2019-01-17T16:28:29.573Z,6.27
2019-01-17T16:30:57.757Z,6.18
2019-01-17T16:33:25.957Z,6.07
2019-01-17T16:38:41.373Z,6.06
2019-01-17T16:41:09.558Z,6.01
2019-01-17T16:43:37.747Z,5.97
2019-01-17T16:46:05.927Z,5.95
2019-01-17T16:48:34.122Z,5.89
2019-01-17T16:51:21.666Z,5.86
2019-01-17T16:53:49.859Z,5.85
2019-01-17T16:56:18.037Z,5.82
2019-01-17T17:01:20.019Z,5.78
2019-01-17T17:03:48.218Z,5.76
2019-01-17T17:06:16.386Z,5.75
2019-01-17T17:08:44.586Z,5.71
2019-01-17T17:16:34.213Z,5.62
2019-01-17T17:19:02.404Z,5.66
2019-01-17T17:21:30.592Z,5.66
2019-01-17T17:23:58.784Z,5.60
2019-01-17T17:26:26.965Z,5.55
2019-01-17T17:28:55.160Z,5.48
2019-01-17T17:31:43.949Z,5.48
2019-01-17T17:34:12.367Z,5.48
2019-01-17T17:36:40.548Z,5.52
2019-01-17T17:39:48.859Z,5.50
2019-01-17T17:42:17.035Z,5.47
2019-01-17T17:44:45.230Z,5.40
2019-01-17T17:47:13.413Z,5.31
2019-01-17T17:52:16.616Z,5.23
2019-01-17T17:54:44.808Z,5.22
2019-01-17T17:57:12.984Z,5.20
2019-01-17T17:59:41.178Z,5.13
2019-01-17T18:04:58.232Z,4.92
2019-01-17T18:07:26.411Z,4.79
2019-01-17T18:09:54.605Z,4.66
2019-01-17T18:12:22.791Z,4.51
2019-01-17T18:14:50.978Z,4.45
2019-01-17T18:17:19.158Z,4.36
2019-01-17T18:22:21.482Z,4.16
2019-01-17T18:24:49.690Z,4.07
2019-01-17T18:27:17.863Z,4.01
2019-01-17T18:29:46.040Z,3.95
2019-01-17T18:32:14.234Z,3.87
2019-01-17T18:34:42.411Z,3.88
2019-01-17T18:37:10.608Z,3.86
2019-01-17T18:39:38.792Z,3.84
2019-01-17T18:42:06.982Z,3.86
2019-01-17T18:44:35.159Z,3.87
2019-01-17T18:47:03.350Z,3.87
2019-01-17T18:49:31.551Z,3.89
2019-01-17T18:51:59.723Z,3.84
2019-01-17T18:54:27.902Z,3.82
2019-01-17T18:56:56.090Z,3.84
2019-01-17T18:59:24.269Z,3.91
2019-01-17T19:01:52.551Z,3.97
2019-01-17T19:04:20.799Z,3.97
2019-01-17T19:06:48.979Z,3.96
2019-01-17T19:09:17.187Z,3.98
2019-01-17T19:11:45.383Z,3.98
2019-01-17T19:14:13.653Z,3.98
2019-01-17T19:16:41.822Z,3.98
2019-01-17T19:19:10.000Z,3.95
2019-01-17T19:21:38.188Z,3.92
2019-01-17T19:24:06.364Z,3.92
2019-01-17T19:26:34.559Z,3.87
2019-01-17T19:29:02.736Z,3.86
2019-01-17T19:31:30.958Z,3.82
2019-01-17T19:33:59.136Z,3.77
2019-01-17T19:36:27.330Z,3.77
2019-01-17T19:38:55.513Z,3.78
2019-01-17T19:41:23.713Z,3.79
2019-01-17T19:43:51.887Z,3.81
2019-01-17T19:46:20.081Z,3.82
2019-01-17T19:48:48.278Z,3.87
2019-01-17T19:51:16.473Z,3.83
2019-01-17T19:53:44.656Z,3.80
2019-01-17T19:56:12.870Z,3.79
2019-01-17T19:58:41.059Z,3.78
2019-01-17T20:01:09.247Z,3.79
2019-01-17T20:03:37.441Z,3.82
2019-01-17T20:06:05.626Z,3.85
2019-01-17T20:08:33.815Z,3.79
2019-01-17T20:11:02.001Z,3.76
2019-01-17T20:13:30.197Z,3.79
2019-01-17T20:15:58.383Z,3.79
2019-01-17T20:18:26.581Z,3.77
2019-01-17T20:20:54.758Z,3.68
2019-01-17T20:23:22.950Z,3.57
2019-01-17T20:25:51.131Z,3.50
2019-01-17T20:28:19.333Z,3.43
2019-01-17T20:30:47.514Z,3.39
2019-01-17T20:33:15.707Z,3.41
2019-01-17T20:35:43.887Z,3.45
2019-01-17T20:38:12.091Z,3.46
2019-01-17T20:40:40.282Z,3.47
2019-01-17T20:43:08.477Z,3.52
2019-01-17T20:45:36.666Z,3.53
2019-01-17T20:48:04.928Z,3.54
2019-01-17T20:50:33.118Z,3.48
2019-01-17T20:53:01.304Z,3.37
2019-01-17T20:55:29.490Z,3.29
2019-01-17T20:57:57.693Z,3.22
2019-01-17T21:01:04.840Z,3.22
2019-01-17T21:03:33.032Z,3.20
2019-01-17T21:06:01.221Z,3.15
2019-01-17T21:08:29.412Z,3.08
2019-01-17T21:10:57.592Z,3.00
2019-01-17T21:13:25.792Z,2.98
2019-01-17T21:15:54.161Z,2.97
2019-01-17T21:18:22.341Z,3.01
2019-01-17T21:20:50.523Z,3.03
2019-01-17T21:23:18.718Z,3.03
2019-01-17T21:25:46.897Z,3.04
2019-01-17T21:28:15.103Z,3.02
2019-01-17T21:30:43.293Z,3.00
2019-01-17T21:33:30.858Z,3.02
2019-01-17T21:35:59.038Z,3.07
2019-01-17T21:38:27.245Z,3.11
2019-01-17T21:40:55.431Z,3.12
2019-01-17T21:43:23.629Z,3.12
2019-01-17T21:45:51.809Z,3.06
2019-01-17T21:48:20.002Z,3.04
2019-01-17T21:50:48.188Z,3.06
2019-01-17T21:53:16.392Z,3.07
2019-01-17T21:55:44.573Z,3.05
2019-01-17T21:58:12.757Z,3.11
2019-01-17T22:00:40.948Z,3.12
2019-01-17T22:03:09.129Z,3.08
2019-01-17T22:05:37.334Z,3.07
2019-01-17T22:08:05.522Z,3.07
2019-01-17T22:10:33.718Z,3.12
2019-01-17T22:13:01.967Z,3.12
2019-01-17T22:15:30.158Z,3.13
2019-01-17T22:17:58.341Z,3.13
2019-01-17T22:20:26.539Z,3.14
2019-01-17T22:22:54.721Z,3.12
2019-01-17T22:25:22.914Z,3.12
2019-01-17T22:28:31.214Z,3.13
2019-01-17T22:30:59.417Z,3.17
2019-01-17T22:33:27.600Z,3.17
2019-01-17T22:35:55.792Z,3.18
2019-01-17T22:38:23.978Z,3.16
2019-01-17T22:43:27.255Z,3.16
2019-01-17T22:45:55.450Z,3.12
2019-01-17T22:48:23.627Z,3.04
2019-01-17T22:50:51.825Z,2.98
2019-01-17T22:53:20.004Z,2.91
2019-01-17T22:55:48.207Z,2.92
2019-01-17T22:58:16.391Z,2.94
2019-01-17T23:01:24.693Z,2.94
2019-01-17T23:03:52.877Z,2.92
2019-01-17T23:06:21.068Z,2.90
2019-01-17T23:08:49.249Z,2.90
2019-01-17T23:11:17.445Z,2.90
2019-01-17T23:13:45.623Z,2.86
2019-01-17T23:16:13.819Z,2.82
2019-01-17T23:18:42.003Z,2.82
2019-01-17T23:21:10.192Z,2.79
2019-01-17T23:23:38.493Z,2.78
2019-01-17T23:26:06.658Z,2.76
2019-01-17T23:28:34.830Z,2.72
2019-01-17T23:31:03.036Z,2.69
2019-01-17T23:33:31.215Z,2.69
2019-01-17T23:35:59.413Z,2.69
2019-01-17T23:38:27.594Z,2.69
2019-01-17T23:40:55.793Z,2.68
2019-01-17T23:43:23.976Z,2.65
2019-01-17T23:45:52.167Z,2.63
2019-01-17T23:48:20.350Z,2.58
2019-01-17T23:50:48.551Z,2.55
2019-01-17T23:53:16.731Z,2.52
2019-01-17T23:55:44.929Z,2.49
2019-01-17T23:58:13.108Z,2.40
